createdAt,value
2022-08-03T00:00:53.959Z,70.70
2022-08-03T00:01:53.956Z,70.51
2022-08-03T00:02:54.194Z,70.23
2022-08-03T00:03:54.045Z,70.32
2022-08-03T00:04:54.018Z,70.42
2022-08-03T00:06:04.673Z,70.23
2022-08-03T00:06:54.149Z,70.23
2022-08-03T00:07:54.076Z,70.61
2022-08-03T00:08:54.090Z,70.80
2022-08-03T00:09:54.105Z,70.90
2022-08-03T00:10:54.126Z,71.19
2022-08-03T00:11:54.145Z,71.37
2022-08-03T00:12:54.167Z,71.57
2022-08-03T00:13:54.185Z,71.19
2022-08-03T00:14:54.204Z,71.28
2022-08-03T00:15:54.236Z,71.95
2022-08-03T00:16:54.243Z,71.86
2022-08-03T00:17:54.263Z,71.66
2022-08-03T00:18:54.282Z,71.66
2022-08-03T00:19:54.301Z,71.28
2022-08-03T00:20:54.314Z,71.95
2022-08-03T00:21:54.337Z,71.47
2022-08-03T00:22:54.352Z,71.76
2022-08-03T00:23:54.372Z,71.37
2022-08-03T00:24:54.396Z,71.86
2022-08-03T00:25:54.404Z,71.57
2022-08-03T00:26:54.425Z,71.76
2022-08-03T00:27:54.447Z,71.66
2022-08-03T00:28:54.486Z,71.57
2022-08-03T00:29:59.912Z,71.57
2022-08-03T00:30:54.498Z,71.76
2022-08-03T00:31:59.327Z,72.05
2022-08-03T00:32:54.536Z,72.14
2022-08-03T00:33:58.229Z,71.76
2022-08-03T00:34:57.883Z,71.86
2022-08-03T00:35:54.595Z,72.24
2022-08-03T00:36:54.612Z,71.95
2022-08-03T00:37:54.631Z,71.76
2022-08-03T00:38:54.648Z,72.05
2022-08-03T00:39:54.678Z,72.33
2022-08-03T00:40:54.695Z,72.14
2022-08-03T00:41:54.708Z,72.49
2022-08-03T00:42:54.725Z,72.43
2022-08-03T00:43:54.753Z,72.43
2022-08-03T00:44:54.763Z,72.43
2022-08-03T00:45:54.782Z,72.53
2022-08-03T00:46:54.804Z,72.33
2022-08-03T00:47:54.820Z,72.53
2022-08-03T00:48:54.902Z,72.63
2022-08-03T00:49:54.853Z,72.24
2022-08-03T00:50:54.873Z,72.39
2022-08-03T00:51:54.991Z,72.33
2022-08-03T00:52:54.909Z,72.43
2022-08-03T00:53:54.930Z,72.43
2022-08-03T00:54:54.951Z,72.43
2022-08-03T00:55:54.969Z,72.91
2022-08-03T00:56:59.693Z,72.88
2022-08-03T00:57:55.001Z,72.81
2022-08-03T00:58:55.022Z,72.33
2022-08-03T00:59:55.042Z,72.39
2022-08-03T01:00:55.088Z,72.91
2022-08-03T01:01:55.075Z,72.97
2022-08-03T01:02:55.097Z,72.91
2022-08-03T01:03:55.114Z,72.39
2022-08-03T01:04:55.132Z,72.43
2022-08-03T01:05:55.158Z,72.43
2022-08-03T01:06:55.177Z,72.43
2022-08-03T01:07:55.191Z,72.43
2022-08-03T01:08:55.204Z,72.43
2022-08-03T01:09:55.230Z,72.43
2022-08-03T01:10:55.241Z,72.39
2022-08-03T01:12:01.079Z,72.33
2022-08-03T01:12:55.282Z,72.49
2022-08-03T01:14:01.080Z,72.43
2022-08-03T01:14:55.316Z,72.91
2022-08-03T01:15:55.333Z,72.88
2022-08-03T01:16:55.356Z,73.30
2022-08-03T01:17:55.372Z,73.45
2022-08-03T01:18:55.391Z,72.97
2022-08-03T01:19:55.410Z,73.07
2022-08-03T01:20:55.427Z,73.55
2022-08-03T01:21:55.448Z,73.55
2022-08-03T01:22:55.561Z,73.93
2022-08-03T01:23:55.483Z,73.83
2022-08-03T01:24:55.503Z,73.65
2022-08-03T01:25:55.517Z,73.55
2022-08-03T01:26:55.536Z,73.55
2022-08-03T01:27:55.555Z,73.07
2022-08-03T01:28:55.576Z,73.55
2022-08-03T01:29:55.592Z,73.35
2022-08-03T01:30:55.608Z,73.26
2022-08-03T01:32:59.548Z,73.45
2022-08-03T01:33:03.034Z,73.16
2022-08-03T01:33:55.665Z,72.78
2022-08-03T01:34:55.688Z,73.07
2022-08-03T01:35:55.703Z,72.78
2022-08-03T01:36:55.726Z,72.97
2022-08-03T01:37:55.738Z,72.97
2022-08-03T01:38:55.757Z,73.45
2022-08-03T01:39:55.776Z,73.45
2022-08-03T01:40:55.799Z,73.55
2022-08-03T01:41:55.815Z,74.22
2022-08-03T01:42:55.830Z,74.12
2022-08-03T01:44:28.398Z,74.02
2022-08-03T01:44:55.868Z,74.22
2022-08-03T01:45:55.886Z,73.93
2022-08-03T01:46:55.903Z,73.93
2022-08-03T01:47:55.925Z,74.02
2022-08-03T01:48:56.025Z,73.93
2022-08-03T01:49:56.057Z,74.31
2022-08-03T01:50:55.978Z,74.02
2022-08-03T01:52:03.934Z,74.22
2022-08-03T01:52:56.014Z,74.41
2022-08-03T01:53:56.039Z,74.69
2022-08-03T01:54:56.050Z,74.89
2022-08-03T01:55:56.080Z,74.41
2022-08-03T01:56:56.090Z,74.41
2022-08-03T01:58:05.299Z,74.31
2022-08-03T01:58:56.122Z,73.74
2022-08-03T01:59:56.141Z,74.12
2022-08-03T02:00:56.223Z,73.74
2022-08-03T02:02:28.793Z,74.22
2022-08-03T02:02:56.191Z,73.93
2022-08-03T02:04:00.927Z,73.83
2022-08-03T02:04:56.231Z,73.74
2022-08-03T02:06:17.837Z,73.93
2022-08-03T02:07:01.673Z,73.74
2022-08-03T02:07:56.287Z,73.83
2022-08-03T02:08:56.305Z,74.41
2022-08-03T02:09:56.325Z,74.69
2022-08-03T02:10:56.343Z,74.79
2022-08-03T02:11:56.356Z,74.89
2022-08-03T02:12:56.377Z,74.98
2022-08-03T02:13:56.399Z,75.23
2022-08-03T02:14:56.509Z,74.60
2022-08-03T02:15:56.434Z,75.23
2022-08-03T02:16:56.453Z,75.14
2022-08-03T02:17:56.469Z,75.14
2022-08-03T02:18:56.484Z,75.14
2022-08-03T02:19:56.504Z,75.04
2022-08-03T02:20:56.520Z,75.33
2022-08-03T02:22:01.402Z,75.43
2022-08-03T02:22:56.559Z,75.71
2022-08-03T02:23:56.580Z,75.33
2022-08-03T02:24:56.698Z,75.43
2022-08-03T02:25:56.608Z,75.71
2022-08-03T02:26:56.631Z,75.62
2022-08-03T02:27:56.654Z,75.62
2022-08-03T02:28:56.672Z,75.14
2022-08-03T02:29:56.685Z,74.95
2022-08-03T02:30:56.702Z,75.14
2022-08-03T02:31:56.732Z,75.14
2022-08-03T02:32:56.744Z,75.23
2022-08-03T02:33:56.757Z,74.85
2022-08-03T02:34:56.775Z,74.95
2022-08-03T02:35:56.794Z,75.23
2022-08-03T02:36:56.812Z,74.98
2022-08-03T02:37:56.829Z,75.14
2022-08-03T02:38:56.848Z,75.23
2022-08-03T02:39:56.865Z,75.52
2022-08-03T02:40:56.881Z,75.04
2022-08-03T02:41:56.898Z,75.52
2022-08-03T02:42:56.921Z,75.14
2022-08-03T02:44:05.869Z,74.95
2022-08-03T02:44:56.956Z,75.33
2022-08-03T02:45:56.973Z,75.23
2022-08-03T02:46:56.988Z,75.23
2022-08-03T02:47:57.010Z,75.04
2022-08-03T02:48:57.065Z,75.23
2022-08-03T02:49:57.105Z,75.33
2022-08-03T02:50:57.063Z,75.23
2022-08-03T02:51:57.088Z,75.14
2022-08-03T02:52:57.100Z,75.23
2022-08-03T02:53:57.118Z,75.23
2022-08-03T02:54:57.138Z,75.62
2022-08-03T02:55:57.152Z,75.52
2022-08-03T02:56:57.173Z,75.90
2022-08-03T02:57:57.189Z,75.90
2022-08-03T02:58:57.208Z,76.00
2022-08-03T02:59:57.229Z,75.52
2022-08-03T03:00:57.327Z,75.62
2022-08-03T03:01:57.261Z,75.14
2022-08-03T03:02:57.281Z,75.71
2022-08-03T03:03:57.401Z,75.71
2022-08-03T03:05:50.610Z,75.52
2022-08-03T03:05:57.541Z,75.43
2022-08-03T03:06:57.355Z,75.81
2022-08-03T03:07:57.371Z,75.14
2022-08-03T03:08:59.773Z,75.33
2022-08-03T03:09:57.403Z,75.23
2022-08-03T03:10:57.422Z,75.33
2022-08-03T03:11:57.441Z,75.23
2022-08-03T03:12:57.475Z,75.04
2022-08-03T03:13:57.476Z,75.52
2022-08-03T03:14:57.499Z,76.00
2022-08-03T03:15:57.518Z,75.62
2022-08-03T03:16:57.902Z,75.81
2022-08-03T03:17:57.598Z,75.81
2022-08-03T03:18:57.567Z,75.81
2022-08-03T03:19:57.587Z,75.81
2022-08-03T03:20:57.611Z,76.10
2022-08-03T03:21:57.623Z,76.29
2022-08-03T03:22:57.651Z,75.90
2022-08-03T03:23:57.665Z,76.10
2022-08-03T03:24:57.677Z,76.29
2022-08-03T03:25:57.694Z,76.10
2022-08-03T03:26:57.713Z,76.10
2022-08-03T03:27:57.842Z,76.29
2022-08-03T03:28:57.749Z,76.00
2022-08-03T03:29:57.776Z,75.81
2022-08-03T03:30:57.783Z,75.81
2022-08-03T03:31:57.901Z,75.81
2022-08-03T03:32:57.821Z,75.81
2022-08-03T03:33:57.832Z,75.81
2022-08-03T03:34:57.862Z,75.90
2022-08-03T03:35:57.870Z,75.81
2022-08-03T03:36:57.891Z,76.29
2022-08-03T03:37:57.922Z,75.81
2022-08-03T03:38:57.925Z,75.62
2022-08-03T03:39:57.947Z,75.81
2022-08-03T03:40:57.960Z,76.10
2022-08-03T03:41:57.974Z,75.62
2022-08-03T03:42:57.997Z,76.10
2022-08-03T03:43:58.017Z,76.10
2022-08-03T03:44:58.035Z,76.10
2022-08-03T03:45:58.049Z,76.00
2022-08-03T03:46:58.065Z,76.00
2022-08-03T03:47:58.085Z,76.00
2022-08-03T03:48:58.163Z,76.39
2022-08-03T03:49:58.123Z,76.29
2022-08-03T03:50:58.144Z,76.57
2022-08-03T03:51:58.162Z,76.39
2022-08-03T03:52:58.282Z,76.10
2022-08-03T03:53:58.190Z,76.10
2022-08-03T03:55:00.992Z,76.00
2022-08-03T03:56:01.999Z,76.10
2022-08-03T03:56:58.243Z,76.10
2022-08-03T03:57:58.264Z,76.39
2022-08-03T03:58:58.283Z,76.00
2022-08-03T03:59:58.298Z,76.10
2022-08-03T04:00:58.432Z,76.00
2022-08-03T04:01:59.214Z,76.00
2022-08-03T04:02:58.352Z,76.19
2022-08-03T04:03:58.378Z,76.19
2022-08-03T04:04:58.386Z,76.73
2022-08-03T04:05:58.400Z,76.86
2022-08-03T04:06:58.425Z,76.48
2022-08-03T04:07:58.439Z,76.86
2022-08-03T04:08:58.458Z,76.48
2022-08-03T04:09:59.187Z,76.29
2022-08-03T04:10:58.489Z,76.57
2022-08-03T04:11:58.510Z,76.86
2022-08-03T04:12:58.531Z,76.64
2022-08-03T04:14:02.064Z,76.15
2022-08-03T04:14:58.569Z,76.54
2022-08-03T04:15:58.578Z,76.73
2022-08-03T04:16:58.597Z,76.64
2022-08-03T04:17:58.617Z,76.35
2022-08-03T04:18:58.634Z,76.19
2022-08-03T04:19:58.651Z,76.25
2022-08-03T04:20:58.680Z,76.00
2022-08-03T04:21:58.690Z,76.15
2022-08-03T04:22:58.706Z,75.87
2022-08-03T04:23:58.723Z,76.44
2022-08-03T04:24:58.744Z,75.96
2022-08-03T04:25:58.785Z,76.35
2022-08-03T04:26:58.774Z,76.39
2022-08-03T04:28:30.005Z,76.44
2022-08-03T04:28:58.815Z,76.73
2022-08-03T04:29:58.837Z,76.82
2022-08-03T04:30:58.848Z,76.64
2022-08-03T04:31:58.865Z,76.48
2022-08-03T04:32:58.880Z,76.64
2022-08-03T04:33:58.899Z,76.73
2022-08-03T04:34:58.917Z,76.54
2022-08-03T04:36:01.618Z,76.73
2022-08-03T04:36:58.959Z,76.86
2022-08-03T04:37:58.968Z,76.64
2022-08-03T04:38:58.988Z,77.25
2022-08-03T04:39:59.005Z,76.64
2022-08-03T04:40:59.028Z,76.82
2022-08-03T04:42:02.202Z,76.54
2022-08-03T04:42:59.082Z,76.44
2022-08-03T04:43:59.075Z,76.54
2022-08-03T04:45:01.641Z,76.25
2022-08-03T04:45:59.112Z,76.44
2022-08-03T04:46:59.131Z,76.35
2022-08-03T04:47:59.148Z,76.44
2022-08-03T04:48:59.220Z,77.02
2022-08-03T04:49:59.285Z,76.73
2022-08-03T04:50:59.199Z,76.15
2022-08-03T04:51:59.218Z,76.29
2022-08-03T04:52:59.246Z,76.25
2022-08-03T04:53:59.255Z,76.54
2022-08-03T04:54:59.270Z,76.54
2022-08-03T04:55:59.290Z,76.15
2022-08-03T04:56:59.305Z,76.57
2022-08-03T04:57:59.321Z,76.73
2022-08-03T04:58:59.345Z,76.77
2022-08-03T05:00:03.081Z,76.00
2022-08-03T05:00:59.376Z,76.15
2022-08-03T05:01:59.550Z,76.57
2022-08-03T05:02:59.412Z,75.87
2022-08-03T05:03:59.427Z,76.44
2022-08-03T05:04:59.446Z,76.10
2022-08-03T05:06:01.934Z,76.57
2022-08-03T05:06:59.486Z,76.57
2022-08-03T05:08:00.794Z,76.86
2022-08-03T05:08:59.516Z,76.77
2022-08-03T05:10:01.387Z,76.77
2022-08-03T05:10:59.681Z,76.92
2022-08-03T05:11:59.572Z,76.73
2022-08-03T05:12:59.589Z,76.73
2022-08-03T05:13:59.607Z,76.82
2022-08-03T05:14:59.623Z,76.64
2022-08-03T05:15:59.642Z,76.86
2022-08-03T05:16:59.656Z,76.73
2022-08-03T05:17:59.674Z,76.82
2022-08-03T05:18:59.698Z,76.82
2022-08-03T05:19:59.710Z,76.82
2022-08-03T05:20:59.733Z,76.82
2022-08-03T05:21:59.745Z,76.92
2022-08-03T05:22:59.764Z,76.48
2022-08-03T05:23:59.780Z,76.77
2022-08-03T05:24:59.804Z,76.86
2022-08-03T05:25:59.865Z,76.73
2022-08-03T05:26:59.835Z,76.29
2022-08-03T05:27:59.850Z,76.29
2022-08-03T05:28:59.873Z,76.29
2022-08-03T05:30:31.253Z,76.57
2022-08-03T05:30:59.901Z,76.10
2022-08-03T05:32:01.186Z,76.19
2022-08-03T05:32:59.948Z,76.00
2022-08-03T05:33:59.957Z,76.39
2022-08-03T05:34:59.977Z,76.29
2022-08-03T05:36:03.454Z,76.39
2022-08-03T05:37:00.010Z,76.00
2022-08-03T05:38:00.031Z,76.39
2022-08-03T05:39:02.807Z,75.90
2022-08-03T05:40:00.091Z,75.81
2022-08-03T05:41:21.459Z,76.86
2022-08-03T05:42:00.107Z,76.19
2022-08-03T05:43:00.117Z,76.57
2022-08-03T05:44:00.237Z,76.57
2022-08-03T05:45:00.254Z,76.48
2022-08-03T05:46:11.457Z,76.86
2022-08-03T05:47:00.189Z,76.57
2022-08-03T05:48:00.348Z,76.86
2022-08-03T05:49:00.340Z,76.77
2022-08-03T05:50:00.404Z,76.48
2022-08-03T05:51:00.334Z,76.29
2022-08-03T05:52:13.215Z,76.77
2022-08-03T05:53:00.291Z,76.86
2022-08-03T05:54:00.311Z,76.86
2022-08-03T05:55:00.338Z,76.67
2022-08-03T05:56:02.688Z,76.86
2022-08-03T05:57:00.361Z,76.29
2022-08-03T05:58:00.390Z,76.29
2022-08-03T05:59:16.329Z,76.29
2022-08-03T06:00:00.415Z,76.71
2022-08-03T06:01:00.534Z,76.77
2022-08-03T06:02:00.495Z,76.48
2022-08-03T06:03:00.479Z,76.39
2022-08-03T06:04:00.490Z,76.42
2022-08-03T06:05:00.506Z,76.52
2022-08-03T06:06:00.843Z,76.62
2022-08-03T06:07:00.540Z,76.32
2022-08-03T06:08:00.558Z,76.42
2022-08-03T06:09:00.578Z,75.85
2022-08-03T06:10:36.357Z,76.14
2022-08-03T06:11:00.620Z,76.04
2022-08-03T06:12:00.630Z,75.56
2022-08-03T06:13:00.649Z,75.18
2022-08-03T06:14:00.664Z,75.89
2022-08-03T06:15:00.682Z,75.60
2022-08-03T06:16:00.711Z,76.17
2022-08-03T06:17:00.725Z,75.50
2022-08-03T06:18:02.203Z,75.12
2022-08-03T06:19:00.759Z,74.83
2022-08-03T06:20:00.771Z,74.26
2022-08-03T06:21:09.574Z,73.58
2022-08-03T06:22:00.905Z,73.00
2022-08-03T06:23:01.441Z,73.10
2022-08-03T06:24:00.840Z,72.81
2022-08-03T06:25:04.804Z,73.00
2022-08-03T06:26:00.885Z,73.04
2022-08-03T06:27:00.898Z,72.28
2022-08-03T06:28:00.925Z,72.37
2022-08-03T06:29:00.941Z,71.89
2022-08-03T06:30:00.956Z,71.41
2022-08-03T06:31:01.106Z,71.41
2022-08-03T06:32:00.994Z,71.51
2022-08-03T06:33:01.011Z,71.89
2022-08-03T06:34:34.303Z,71.03
2022-08-03T06:35:01.051Z,71.22
2022-08-03T06:36:01.060Z,71.70
2022-08-03T06:37:02.324Z,70.93
2022-08-03T06:38:01.097Z,71.55
2022-08-03T06:39:01.214Z,70.68
2022-08-03T06:40:01.139Z,71.16
2022-08-03T06:41:01.151Z,70.68
2022-08-03T06:42:01.172Z,70.29
2022-08-03T06:43:01.190Z,70.78
2022-08-03T06:44:03.531Z,70.68
2022-08-03T06:45:01.226Z,71.45
2022-08-03T06:46:01.245Z,71.35
2022-08-03T06:47:01.265Z,70.68
2022-08-03T06:48:01.288Z,70.49
2022-08-03T06:49:01.436Z,70.87
2022-08-03T06:50:12.559Z,70.58
2022-08-03T06:51:01.358Z,71.16
2022-08-03T06:52:05.315Z,71.06
2022-08-03T06:53:01.380Z,71.16
2022-08-03T06:54:01.419Z,71.45
2022-08-03T06:55:01.409Z,71.16
2022-08-03T06:56:01.428Z,71.06
2022-08-03T06:57:01.484Z,71.19
2022-08-03T06:58:03.631Z,70.81
2022-08-03T06:59:01.485Z,70.62
2022-08-03T07:00:08.075Z,70.33
2022-08-03T07:01:01.572Z,70.04
2022-08-03T07:02:01.544Z,70.43
2022-08-03T07:03:01.558Z,70.33
2022-08-03T07:04:01.579Z,69.85
2022-08-03T07:05:01.604Z,69.75
2022-08-03T07:06:01.611Z,69.27
2022-08-03T07:07:01.628Z,69.37
2022-08-03T07:08:01.652Z,69.66
2022-08-03T07:09:01.666Z,69.85
2022-08-03T07:10:02.267Z,69.21
2022-08-03T07:11:01.721Z,69.46
2022-08-03T07:12:01.724Z,68.98
2022-08-03T07:13:01.740Z,69.18
2022-08-03T07:14:01.762Z,69.75
2022-08-03T07:15:03.150Z,69.89
2022-08-03T07:16:01.800Z,69.50
2022-08-03T07:17:01.820Z,69.44
2022-08-03T07:18:01.870Z,69.15
2022-08-03T07:19:01.855Z,68.96
2022-08-03T07:20:01.869Z,68.57
2022-08-03T07:21:01.896Z,67.90
2022-08-03T07:22:04.250Z,68.76
2022-08-03T07:23:01.928Z,68.48
2022-08-03T07:24:01.948Z,68.38
2022-08-03T07:25:01.965Z,68.67
2022-08-03T07:26:01.988Z,68.86
2022-08-03T07:27:02.007Z,68.67
2022-08-03T07:28:02.022Z,69.24
2022-08-03T07:29:02.043Z,68.96
2022-08-03T07:30:02.061Z,69.34
2022-08-03T07:31:02.081Z,69.12
2022-08-03T07:32:02.103Z,70.37
2022-08-03T07:33:02.121Z,70.94
2022-08-03T07:34:02.133Z,70.65
2022-08-03T07:35:02.154Z,69.31
2022-08-03T07:36:02.173Z,69.31
2022-08-03T07:37:02.195Z,69.31
2022-08-03T07:38:02.207Z,69.21
2022-08-03T07:39:15.753Z,69.44
2022-08-03T07:40:02.251Z,69.44
2022-08-03T07:41:02.263Z,68.70
2022-08-03T07:42:02.286Z,67.74
2022-08-03T07:43:02.309Z,67.83
2022-08-03T07:44:02.329Z,67.83
2022-08-03T07:45:02.345Z,68.03
2022-08-03T07:46:02.363Z,68.03
2022-08-03T07:47:03.415Z,67.83
2022-08-03T07:48:02.400Z,68.41
2022-08-03T07:49:02.468Z,68.51
2022-08-03T07:50:02.439Z,68.80
2022-08-03T07:51:02.464Z,68.35
2022-08-03T07:52:02.477Z,67.68
2022-08-03T07:53:02.496Z,67.19
2022-08-03T07:54:02.522Z,67.39
2022-08-03T07:55:02.539Z,66.24
2022-08-03T07:56:02.558Z,65.75
2022-08-03T07:57:02.571Z,65.63
2022-08-03T07:58:02.595Z,66.01
2022-08-03T07:59:02.618Z,66.10
2022-08-03T08:00:02.907Z,66.30
2022-08-03T08:01:02.711Z,66.20
2022-08-03T08:02:02.671Z,66.49
2022-08-03T08:03:02.688Z,66.58
2022-08-03T08:04:02.715Z,67.03
2022-08-03T08:05:05.705Z,67.26
2022-08-03T08:06:02.746Z,67.26
2022-08-03T08:07:02.770Z,66.01
2022-08-03T08:08:02.784Z,66.30
2022-08-03T08:09:02.805Z,66.20
2022-08-03T08:10:02.824Z,66.78
2022-08-03T08:11:02.844Z,67.16
2022-08-03T08:12:02.864Z,66.78
2022-08-03T08:13:02.884Z,66.49
2022-08-03T08:14:02.907Z,66.68
2022-08-03T08:15:02.926Z,67.35
2022-08-03T08:16:02.943Z,66.14
2022-08-03T08:17:07.011Z,66.42
2022-08-03T08:18:02.986Z,65.50
2022-08-03T08:19:03.004Z,64.15
2022-08-03T08:20:03.027Z,64.02
2022-08-03T08:21:03.045Z,64.25
2022-08-03T08:22:03.230Z,64.43
2022-08-03T08:23:03.549Z,63.28
2022-08-03T08:24:03.100Z,63.09
2022-08-03T08:25:03.119Z,62.83
2022-08-03T08:26:03.139Z,62.63
2022-08-03T08:27:03.158Z,62.35
2022-08-03T08:28:29.458Z,61.96
2022-08-03T08:29:03.195Z,62.18
2022-08-03T08:30:10.173Z,61.90
2022-08-03T08:31:03.242Z,61.19
2022-08-03T08:32:03.257Z,62.12
2022-08-03T08:33:03.281Z,63.12
2022-08-03T08:34:04.554Z,62.25
2022-08-03T08:35:03.313Z,62.60
2022-08-03T08:36:03.332Z,63.76
2022-08-03T08:37:03.355Z,63.73
2022-08-03T08:38:05.737Z,64.21
2022-08-03T08:39:03.394Z,64.43
2022-08-03T08:40:03.410Z,63.89
2022-08-03T08:41:03.433Z,63.70
2022-08-03T08:42:03.452Z,63.24
2022-08-03T08:43:03.569Z,62.54
2022-08-03T08:44:03.493Z,63.02
2022-08-03T08:45:03.515Z,62.45
2022-08-03T08:46:03.528Z,63.15
2022-08-03T08:47:03.559Z,62.57
2022-08-03T08:48:07.848Z,62.99
2022-08-03T08:49:04.912Z,60.77
2022-08-03T08:50:10.070Z,61.16
2022-08-03T08:51:03.630Z,60.80
2022-08-03T08:52:03.650Z,60.51
2022-08-03T08:53:03.680Z,60.06
2022-08-03T08:54:03.703Z,59.96
2022-08-03T08:55:03.708Z,59.00
2022-08-03T08:56:03.729Z,59.02
2022-08-03T08:57:16.256Z,58.45
2022-08-03T08:58:03.773Z,58.83
2022-08-03T08:59:03.790Z,58.06
2022-08-03T09:00:03.812Z,57.87
2022-08-03T09:01:03.861Z,57.87
2022-08-03T09:02:03.849Z,57.77
2022-08-03T09:03:03.868Z,57.74
2022-08-03T09:04:03.893Z,57.74
2022-08-03T09:05:07.711Z,58.12
2022-08-03T09:06:03.932Z,58.22
2022-08-03T09:07:19.540Z,58.22
2022-08-03T09:08:03.975Z,58.35
2022-08-03T09:09:03.993Z,58.64
2022-08-03T09:10:12.495Z,57.29
2022-08-03T09:11:04.032Z,57.09
2022-08-03T09:12:21.122Z,56.99
2022-08-03T09:13:04.075Z,56.13
2022-08-03T09:14:04.098Z,54.19
2022-08-03T09:15:16.459Z,54.49
2022-08-03T09:16:04.137Z,54.29
2022-08-03T09:17:04.159Z,53.91
2022-08-03T09:18:04.276Z,54.49
2022-08-03T09:19:04.198Z,53.71
2022-08-03T09:20:04.223Z,56.54
2022-08-03T09:21:24.226Z,53.35
2022-08-03T09:22:04.267Z,52.58
2022-08-03T09:23:19.057Z,52.09
2022-08-03T09:24:05.878Z,52.19
2022-08-03T09:25:23.460Z,52.29
2022-08-03T09:26:04.350Z,52.48
2022-08-03T09:27:04.381Z,52.65
2022-08-03T09:28:04.393Z,52.94
2022-08-03T09:29:09.297Z,53.06
2022-08-03T09:30:04.439Z,52.17
2022-08-03T09:31:04.481Z,52.87
2022-08-03T09:32:04.489Z,52.29
2022-08-03T09:33:04.506Z,52.12
2022-08-03T09:34:04.528Z,52.12
2022-08-03T09:35:04.547Z,51.15
2022-08-03T09:36:04.585Z,51.73
2022-08-03T09:37:04.591Z,50.86
2022-08-03T09:38:12.787Z,51.81
2022-08-03T09:39:04.636Z,53.06
2022-08-03T09:40:04.671Z,52.80
2022-08-03T09:41:04.689Z,51.06
2022-08-03T09:42:04.703Z,51.54
2022-08-03T09:43:04.721Z,50.28
2022-08-03T09:44:04.847Z,50.57
2022-08-03T09:45:04.764Z,50.57
2022-08-03T09:46:04.817Z,52.14
2022-08-03T09:47:04.816Z,50.89
2022-08-03T09:48:04.834Z,50.52
2022-08-03T09:49:05.010Z,49.63
2022-08-03T09:50:04.877Z,50.28
2022-08-03T09:51:14.480Z,50.79
2022-08-03T09:52:32.781Z,50.50
2022-08-03T09:53:04.945Z,50.98
2022-08-03T09:54:08.580Z,50.62
2022-08-03T09:55:04.985Z,50.31
2022-08-03T09:56:34.684Z,50.21
2022-08-03T09:57:05.031Z,51.47
2022-08-03T09:58:05.057Z,50.43
2022-08-03T09:59:05.079Z,49.85
2022-08-03T10:00:08.144Z,49.73
2022-08-03T10:01:05.329Z,49.54
2022-08-03T10:02:05.145Z,49.63
2022-08-03T10:03:05.166Z,50.40
2022-08-03T10:04:05.470Z,49.07
2022-08-03T10:05:05.209Z,49.58
2022-08-03T10:06:05.231Z,48.81
2022-08-03T10:07:05.255Z,48.32
2022-08-03T10:08:05.276Z,48.90
2022-08-03T10:09:05.299Z,47.67
2022-08-03T10:10:29.060Z,47.47
2022-08-03T10:11:05.350Z,47.74
2022-08-03T10:12:05.370Z,46.67
2022-08-03T10:13:05.392Z,47.28
2022-08-03T10:14:05.419Z,47.77
2022-08-03T10:15:05.440Z,46.22
2022-08-03T10:16:24.945Z,45.75
2022-08-03T10:17:05.502Z,45.47
2022-08-03T10:18:05.508Z,45.56
2022-08-03T10:19:05.532Z,44.40
2022-08-03T10:20:05.552Z,45.44
2022-08-03T10:21:05.582Z,45.05
2022-08-03T10:22:05.601Z,45.54
2022-08-03T10:23:05.625Z,45.73
2022-08-03T10:24:05.646Z,44.37
2022-08-03T10:25:05.671Z,45.27
2022-08-03T10:26:05.693Z,43.91
2022-08-03T10:27:05.719Z,42.75
2022-08-03T10:28:05.739Z,44.10
2022-08-03T10:29:05.826Z,43.12
2022-08-03T10:30:05.788Z,44.26
2022-08-03T10:31:05.814Z,45.57
2022-08-03T10:32:05.833Z,46.83
2022-08-03T10:33:05.865Z,46.53
2022-08-03T10:34:05.882Z,46.66
2022-08-03T10:35:18.959Z,46.87
2022-08-03T10:36:05.929Z,45.61
2022-08-03T10:37:05.957Z,45.51
2022-08-03T10:38:05.979Z,46.48
2022-08-03T10:39:16.103Z,45.61
2022-08-03T10:40:06.127Z,46.22
2022-08-03T10:41:06.048Z,46.04
2022-08-03T10:42:06.073Z,44.30
2022-08-03T10:43:06.098Z,43.99
2022-08-03T10:44:06.119Z,44.35
2022-08-03T10:45:06.142Z,45.05
2022-08-03T10:46:06.176Z,44.68
2022-08-03T10:47:06.191Z,44.32
2022-08-03T10:48:06.214Z,42.96
2022-08-03T10:49:06.291Z,43.04
2022-08-03T10:50:06.274Z,45.07
2022-08-03T10:51:06.288Z,43.35
2022-08-03T10:52:13.393Z,41.51
2022-08-03T10:53:06.335Z,42.34
2022-08-03T10:54:06.351Z,43.82
2022-08-03T10:55:07.580Z,42.99
2022-08-03T10:56:06.399Z,40.15
2022-08-03T10:57:14.297Z,39.08
2022-08-03T10:58:11.038Z,40.56
2022-08-03T10:59:06.476Z,40.26
2022-08-03T11:00:06.498Z,41.22
2022-08-03T11:01:06.600Z,42.48
2022-08-03T11:02:06.543Z,43.01
2022-08-03T11:03:06.823Z,41.20
2022-08-03T11:04:11.063Z,38.67
2022-08-03T11:05:06.617Z,36.91
2022-08-03T11:06:06.641Z,36.79
2022-08-03T11:07:06.666Z,38.06
2022-08-03T11:08:06.689Z,39.98
2022-08-03T11:09:06.727Z,41.12
2022-08-03T11:10:10.542Z,41.31
2022-08-03T11:11:06.764Z,41.31
2022-08-03T11:12:06.792Z,40.08
2022-08-03T11:13:06.816Z,40.39
2022-08-03T11:14:06.835Z,39.53
2022-08-03T11:15:07.196Z,38.83
2022-08-03T11:16:10.896Z,38.65
2022-08-03T11:17:06.914Z,37.76
2022-08-03T11:18:06.952Z,39.32
2022-08-03T11:19:06.963Z,39.29
2022-08-03T11:20:06.989Z,39.01
2022-08-03T11:21:07.022Z,39.39
2022-08-03T11:22:07.033Z,39.37
2022-08-03T11:23:07.059Z,39.78
2022-08-03T11:24:07.211Z,40.15
2022-08-03T11:25:07.108Z,41.24
2022-08-03T11:26:07.244Z,41.26
2022-08-03T11:27:07.161Z,41.67
2022-08-03T11:28:07.183Z,38.75
2022-08-03T11:29:07.206Z,38.39
2022-08-03T11:30:07.244Z,37.70
2022-08-03T11:31:07.269Z,38.85
2022-08-03T11:32:07.285Z,40.39
2022-08-03T11:33:07.305Z,41.45
2022-08-03T11:34:07.336Z,42.05
2022-08-03T11:35:07.357Z,41.67
2022-08-03T11:36:07.381Z,40.69
2022-08-03T11:37:07.513Z,40.99
2022-08-03T11:38:07.429Z,41.36
2022-08-03T11:39:07.457Z,41.45
2022-08-03T11:40:07.482Z,41.53
2022-08-03T11:41:07.535Z,41.36
2022-08-03T11:42:07.534Z,40.69
2022-08-03T11:43:07.558Z,40.21
2022-08-03T11:44:07.589Z,40.19
2022-08-03T11:45:07.654Z,40.97
2022-08-03T11:46:07.640Z,41.41
2022-08-03T11:47:07.656Z,42.77
2022-08-03T11:48:07.688Z,43.35
2022-08-03T11:49:10.906Z,41.89
2022-08-03T11:50:07.743Z,40.56
2022-08-03T11:51:07.758Z,41.06
2022-08-03T11:52:07.778Z,40.99
2022-08-03T11:53:07.805Z,41.26
2022-08-03T11:54:07.833Z,41.33
2022-08-03T11:55:07.857Z,41.51
2022-08-03T11:56:12.906Z,40.17
2022-08-03T11:57:07.923Z,39.22
2022-08-03T11:59:17.092Z,37.55
2022-08-03T11:59:20.090Z,38.68
2022-08-03T12:00:08.019Z,40.64
2022-08-03T12:01:08.004Z,41.24
2022-08-03T12:02:08.033Z,40.29
2022-08-03T12:03:08.201Z,38.15
2022-08-03T12:04:08.078Z,36.89
2022-08-03T12:05:08.115Z,37.86
2022-08-03T12:06:08.128Z,39.24
2022-08-03T12:07:08.165Z,37.90
2022-08-03T12:08:08.181Z,36.54
2022-08-03T12:09:08.212Z,37.01
2022-08-03T12:10:08.230Z,36.76
2022-08-03T12:11:08.255Z,37.18
2022-08-03T12:12:08.280Z,36.93
2022-08-03T12:14:05.736Z,35.37
2022-08-03T12:14:50.374Z,34.42
2022-08-03T12:15:08.360Z,34.50
2022-08-03T12:16:08.383Z,34.90
2022-08-03T12:17:08.409Z,33.18
2022-08-03T12:18:08.432Z,30.93
2022-08-03T12:19:08.456Z,31.38
2022-08-03T12:20:08.485Z,31.60
2022-08-03T12:21:08.508Z,31.85
2022-08-03T12:22:08.533Z,33.90
2022-08-03T12:23:08.555Z,34.50
2022-08-03T12:24:08.583Z,35.29
2022-08-03T12:25:08.607Z,35.89
2022-08-03T12:26:08.631Z,34.53
2022-08-03T12:27:08.662Z,34.52
2022-08-03T12:28:36.204Z,35.10
2022-08-03T12:29:08.710Z,36.22
2022-08-03T12:30:08.736Z,37.60
2022-08-03T12:31:08.767Z,36.24
2022-08-03T12:32:08.789Z,35.19
2022-08-03T12:33:08.809Z,35.60
2022-08-03T12:34:08.841Z,35.74
2022-08-03T12:35:08.863Z,36.96
2022-08-03T12:36:08.898Z,35.60
2022-08-03T12:37:19.312Z,35.70
2022-08-03T12:38:08.938Z,37.04
2022-08-03T12:39:09.069Z,36.63
2022-08-03T12:40:10.828Z,36.54
2022-08-03T12:41:09.022Z,37.39
2022-08-03T12:42:09.048Z,37.99
2022-08-03T12:43:09.074Z,36.42
2022-08-03T12:44:09.096Z,36.63
2022-08-03T12:45:09.120Z,36.04
2022-08-03T12:46:09.148Z,36.99
2022-08-03T12:47:09.176Z,36.91
2022-08-03T12:48:09.199Z,37.78
2022-08-03T12:49:09.375Z,37.41
2022-08-03T12:50:09.255Z,35.84
2022-08-03T12:51:09.276Z,35.66
2022-08-03T12:52:09.312Z,34.32
2022-08-03T12:53:09.348Z,34.70